sensor_id;sensor_type;location;lat;lon;timestamp;pressure;altitude;pressure_sealevel;temperature;humidity
7532;BME280;3807;49.030;8.714;2023-06-14T00:00:49;98805.78;;;24.68;33.34
7532;BME280;3807;49.030;8.714;2023-06-14T00:03:14;98810.81;;;24.62;33.57
7532;BME280;3807;49.030;8.714;2023-06-14T00:05:43;98804.75;;;24.61;33.56
7532;BME280;3807;49.030;8.714;2023-06-14T00:08:09;98805.09;;;24.58;33.57
7532;BME280;3807;49.030;8.714;2023-06-14T00:10:35;98806.34;;;24.54;33.82
7532;BME280;3807;49.030;8.714;2023-06-14T00:13:02;98805.91;;;24.59;33.62
7532;BME280;3807;49.030;8.714;2023-06-14T00:15:28;98804.87;;;24.52;33.53
7532;BME280;3807;49.030;8.714;2023-06-14T00:17:53;98808.09;;;24.45;33.72
7532;BME280;3807;49.030;8.714;2023-06-14T00:20:20;98801.97;;;24.37;33.76
7532;BME280;3807;49.030;8.714;2023-06-14T00:22:45;98808.31;;;24.34;33.55
7532;BME280;3807;49.030;8.714;2023-06-14T00:25:11;98803.25;;;24.33;33.81
7532;BME280;3807;49.030;8.714;2023-06-14T00:27:36;98799.00;;;24.32;33.72
7532;BME280;3807;49.030;8.714;2023-06-14T00:30:02;98803.72;;;24.28;33.68
7532;BME280;3807;49.030;8.714;2023-06-14T00:32:27;98806.78;;;24.23;33.84
7532;BME280;3807;49.030;8.714;2023-06-14T00:34:53;98802.38;;;24.24;33.72
7532;BME280;3807;49.030;8.714;2023-06-14T00:37:18;98805.94;;;24.23;33.84
7532;BME280;3807;49.030;8.714;2023-06-14T00:39:43;98802.47;;;24.14;33.97
7532;BME280;3807;49.030;8.714;2023-06-14T00:42:08;98801.94;;;24.11;33.88
7532;BME280;3807;49.030;8.714;2023-06-14T00:44:34;98796.87;;;24.09;33.92
7532;BME280;3807;49.030;8.714;2023-06-14T00:46:59;98795.72;;;24.04;34.05
7532;BME280;3807;49.030;8.714;2023-06-14T00:49:24;98797.13;;;23.98;34.22
7532;BME280;3807;49.030;8.714;2023-06-14T00:51:50;98794.97;;;23.93;34.33
7532;BME280;3807;49.030;8.714;2023-06-14T00:54:16;98800.62;;;23.89;34.28
7532;BME280;3807;49.030;8.714;2023-06-14T00:56:43;98801.72;;;23.86;34.34
7532;BME280;3807;49.030;8.714;2023-06-14T00:59:09;98792.97;;;23.87;34.30
7532;BME280;3807;49.030;8.714;2023-06-14T01:01:36;98800.81;;;23.77;34.42
7532;BME280;3807;49.030;8.714;2023-06-14T01:04:02;98798.84;;;23.71;34.58
7532;BME280;3807;49.030;8.714;2023-06-14T01:06:47;98796.25;;;23.71;34.56
7532;BME280;3807;49.030;8.714;2023-06-14T01:09:27;98800.91;;;23.68;34.61
7532;BME280;3807;49.030;8.714;2023-06-14T01:12:01;98800.12;;;23.58;34.64
7532;BME280;3807;49.030;8.714;2023-06-14T01:14:31;98795.22;;;23.54;34.71
7532;BME280;3807;49.030;8.714;2023-06-14T01:16:57;98798.25;;;23.50;34.79
7532;BME280;3807;49.030;8.714;2023-06-14T01:19:25;98797.44;;;23.49;34.72
7532;BME280;3807;49.030;8.714;2023-06-14T01:21:51;98795.97;;;23.47;34.86
7532;BME280;3807;49.030;8.714;2023-06-14T01:24:16;98801.81;;;23.49;34.85
7532;BME280;3807;49.030;8.714;2023-06-14T01:26:45;98807.31;;;23.46;35.03
7532;BME280;3807;49.030;8.714;2023-06-14T01:29:11;98797.13;;;23.35;35.11
7532;BME280;3807;49.030;8.714;2023-06-14T01:31:38;98808.47;;;23.34;35.12
7532;BME280;3807;49.030;8.714;2023-06-14T01:34:07;98811.50;;;23.29;35.25
7532;BME280;3807;49.030;8.714;2023-06-14T01:36:33;98803.69;;;23.29;35.20
7532;BME280;3807;49.030;8.714;2023-06-14T01:39:01;98807.03;;;23.21;35.27
7532;BME280;3807;49.030;8.714;2023-06-14T01:41:28;98807.56;;;23.25;35.31
7532;BME280;3807;49.030;8.714;2023-06-14T01:43:54;98815.69;;;23.12;35.57
7532;BME280;3807;49.030;8.714;2023-06-14T01:46:20;98808.84;;;23.11;35.66
7532;BME280;3807;49.030;8.714;2023-06-14T01:48:46;98809.66;;;23.12;35.49
7532;BME280;3807;49.030;8.714;2023-06-14T01:51:11;98804.53;;;23.02;35.79
7532;BME280;3807;49.030;8.714;2023-06-14T01:53:37;98807.25;;;23.00;35.65
7532;BME280;3807;49.030;8.714;2023-06-14T01:56:02;98808.59;;;23.04;35.66
7532;BME280;3807;49.030;8.714;2023-06-14T01:58:28;98812.87;;;22.96;35.73
7532;BME280;3807;49.030;8.714;2023-06-14T02:00:54;98805.25;;;22.85;35.93
7532;BME280;3807;49.030;8.714;2023-06-14T02:03:20;98815.91;;;22.81;36.11
7532;BME280;3807;49.030;8.714;2023-06-14T02:05:46;98820.56;;;22.78;36.19
7532;BME280;3807;49.030;8.714;2023-06-14T02:08:11;98815.50;;;22.76;36.09
7532;BME280;3807;49.030;8.714;2023-06-14T02:10:37;98813.34;;;22.62;36.25
7532;BME280;3807;49.030;8.714;2023-06-14T02:13:02;98818.44;;;22.64;36.21
7532;BME280;3807;49.030;8.714;2023-06-14T02:15:27;98814.06;;;22.64;36.09
7532;BME280;3807;49.030;8.714;2023-06-14T02:17:58;98814.34;;;22.51;36.38
7532;BME280;3807;49.030;8.714;2023-06-14T02:20:23;98820.06;;;22.45;36.38
7532;BME280;3807;49.030;8.714;2023-06-14T02:22:49;98817.78;;;22.42;36.32
7532;BME280;3807;49.030;8.714;2023-06-14T02:25:14;98828.56;;;22.47;36.23
7532;BME280;3807;49.030;8.714;2023-06-14T02:27:40;98815.19;;;22.42;36.38
7532;BME280;3807;49.030;8.714;2023-06-14T02:30:06;98824.06;;;22.40;36.34
7532;BME280;3807;49.030;8.714;2023-06-14T02:32:32;98826.13;;;22.26;36.36
7532;BME280;3807;49.030;8.714;2023-06-14T02:34:59;98822.84;;;22.24;36.49
7532;BME280;3807;49.030;8.714;2023-06-14T02:37:24;98826.53;;;22.22;36.55
7532;BME280;3807;49.030;8.714;2023-06-14T02:39:49;98824.34;;;22.17;36.43
7532;BME280;3807;49.030;8.714;2023-06-14T02:42:15;98831.69;;;22.12;36.54
7532;BME280;3807;49.030;8.714;2023-06-14T02:44:40;98825.16;;;22.08;36.77
7532;BME280;3807;49.030;8.714;2023-06-14T02:47:06;98822.28;;;22.11;36.75
7532;BME280;3807;49.030;8.714;2023-06-14T02:49:31;98824.75;;;22.22;36.50
7532;BME280;3807;49.030;8.714;2023-06-14T02:51:57;98832.41;;;22.14;36.63
7532;BME280;3807;49.030;8.714;2023-06-14T02:54:22;98827.47;;;22.11;36.59
7532;BME280;3807;49.030;8.714;2023-06-14T02:56:47;98825.84;;;22.00;36.94
7532;BME280;3807;49.030;8.714;2023-06-14T02:59:13;98827.87;;;21.97;36.82
7532;BME280;3807;49.030;8.714;2023-06-14T03:01:39;98824.72;;;21.83;37.06
7532;BME280;3807;49.030;8.714;2023-06-14T03:04:07;98834.13;;;21.84;36.93
7532;BME280;3807;49.030;8.714;2023-06-14T03:06:32;98829.75;;;21.85;36.91
7532;BME280;3807;49.030;8.714;2023-06-14T03:08:59;98829.34;;;21.89;36.84
7532;BME280;3807;49.030;8.714;2023-06-14T03:11:25;98826.87;;;21.78;37.07
7532;BME280;3807;49.030;8.714;2023-06-14T03:13:51;98827.41;;;21.72;37.22
7532;BME280;3807;49.030;8.714;2023-06-14T03:16:17;98827.56;;;21.71;37.02
7532;BME280;3807;49.030;8.714;2023-06-14T03:18:44;98827.16;;;21.75;37.03
7532;BME280;3807;49.030;8.714;2023-06-14T03:21:10;98818.97;;;21.70;37.16
7532;BME280;3807;49.030;8.714;2023-06-14T03:23:36;98827.97;;;21.56;37.26
7532;BME280;3807;49.030;8.714;2023-06-14T03:26:01;98836.53;;;21.57;37.16
7532;BME280;3807;49.030;8.714;2023-06-14T03:28:27;98825.91;;;21.60;37.27
7532;BME280;3807;49.030;8.714;2023-06-14T03:30:52;98830.25;;;21.50;37.35
7532;BME280;3807;49.030;8.714;2023-06-14T03:33:17;98831.50;;;21.55;37.28
7532;BME280;3807;49.030;8.714;2023-06-14T03:35:43;98833.50;;;21.42;37.51
7532;BME280;3807;49.030;8.714;2023-06-14T03:38:08;98838.12;;;21.38;37.48
7532;BME280;3807;49.030;8.714;2023-06-14T03:40:34;98839.91;;;21.38;37.46
7532;BME280;3807;49.030;8.714;2023-06-14T03:42:59;98837.88;;;21.42;37.33
7532;BME280;3807;49.030;8.714;2023-06-14T03:45:25;98843.31;;;21.38;37.34
7532;BME280;3807;49.030;8.714;2023-06-14T03:47:50;98847.69;;;21.38;37.36
7532;BME280;3807;49.030;8.714;2023-06-14T03:50:17;98840.25;;;21.24;37.47
7532;BME280;3807;49.030;8.714;2023-06-14T03:52:43;98847.63;;;21.28;37.46
7532;BME280;3807;49.030;8.714;2023-06-14T03:55:09;98852.63;;;21.20;37.55
7532;BME280;3807;49.030;8.714;2023-06-14T03:57:35;98855.78;;;21.24;37.58
7532;BME280;3807;49.030;8.714;2023-06-14T04:00:00;98862.19;;;21.29;37.45
7532;BME280;3807;49.030;8.714;2023-06-14T04:02:26;98863.94;;;21.19;37.72
7532;BME280;3807;49.030;8.714;2023-06-14T04:04:54;98871.78;;;21.08;37.90
7532;BME280;3807;49.030;8.714;2023-06-14T04:07:20;98880.81;;;21.13;37.81
7532;BME280;3807;49.030;8.714;2023-06-14T04:09:45;98876.75;;;21.21;37.65
7532;BME280;3807;49.030;8.714;2023-06-14T04:12:11;98883.19;;;20.96;38.04
7532;BME280;3807;49.030;8.714;2023-06-14T04:14:37;98882.13;;;21.08;37.93
7532;BME280;3807;49.030;8.714;2023-06-14T04:17:02;98890.41;;;21.02;37.94
7532;BME280;3807;49.030;8.714;2023-06-14T04:19:28;98885.47;;;20.89;38.27
7532;BME280;3807;49.030;8.714;2023-06-14T04:21:53;98897.00;;;20.85;38.44
7532;BME280;3807;49.030;8.714;2023-06-14T04:24:18;98895.28;;;20.74;38.57
7532;BME280;3807;49.030;8.714;2023-06-14T04:26:45;98902.06;;;20.86;38.21
7532;BME280;3807;49.030;8.714;2023-06-14T04:29:11;98901.56;;;20.92;38.27
7532;BME280;3807;49.030;8.714;2023-06-14T04:31:40;98902.38;;;20.72;38.50
7532;BME280;3807;49.030;8.714;2023-06-14T04:34:05;98905.84;;;20.82;38.31
7532;BME280;3807;49.030;8.714;2023-06-14T04:36:35;98904.19;;;20.81;38.40
7532;BME280;3807;49.030;8.714;2023-06-14T04:39:03;98904.31;;;20.80;38.41
7532;BME280;3807;49.030;8.714;2023-06-14T04:41:31;98907.47;;;20.83;38.17
7532;BME280;3807;49.030;8.714;2023-06-14T04:43:57;98916.13;;;20.73;38.59
7532;BME280;3807;49.030;8.714;2023-06-14T04:46:29;98918.16;;;20.90;38.42
7532;BME280;3807;49.030;8.714;2023-06-14T04:48:55;98921.41;;;20.71;38.59
7532;BME280;3807;49.030;8.714;2023-06-14T04:51:21;98920.84;;;20.67;38.52
7532;BME280;3807;49.030;8.714;2023-06-14T04:53:55;98925.78;;;20.70;38.50
7532;BME280;3807;49.030;8.714;2023-06-14T04:56:22;98932.03;;;20.68;38.58
7532;BME280;3807;49.030;8.714;2023-06-14T04:58:48;98929.00;;;20.63;38.62
7532;BME280;3807;49.030;8.714;2023-06-14T05:01:13;98932.97;;;20.67;38.67
7532;BME280;3807;49.030;8.714;2023-06-14T05:03:39;98938.03;;;20.68;38.64
7532;BME280;3807;49.030;8.714;2023-06-14T05:06:04;98936.06;;;20.50;39.04
7532;BME280;3807;49.030;8.714;2023-06-14T05:08:29;98937.50;;;20.42;39.06
7532;BME280;3807;49.030;8.714;2023-06-14T05:10:55;98942.78;;;20.52;38.83
7532;BME280;3807;49.030;8.714;2023-06-14T05:13:20;98942.91;;;20.39;39.04
7532;BME280;3807;49.030;8.714;2023-06-14T05:15:48;98952.97;;;20.21;39.73
7532;BME280;3807;49.030;8.714;2023-06-14T05:18:14;98940.38;;;20.28;39.75
7532;BME280;3807;49.030;8.714;2023-06-14T05:20:40;98949.25;;;20.58;39.21
7532;BME280;3807;49.030;8.714;2023-06-14T05:23:07;98940.53;;;20.59;39.00
7532;BME280;3807;49.030;8.714;2023-06-14T05:25:32;98948.16;;;20.60;39.10
7532;BME280;3807;49.030;8.714;2023-06-14T05:27:57;98943.84;;;20.61;39.17
7532;BME280;3807;49.030;8.714;2023-06-14T05:30:23;98947.00;;;20.53;39.14
7532;BME280;3807;49.030;8.714;2023-06-14T05:32:48;98956.87;;;20.59;39.10
7532;BME280;3807;49.030;8.714;2023-06-14T05:35:13;98946.41;;;20.50;39.44
7532;BME280;3807;49.030;8.714;2023-06-14T05:37:39;98953.34;;;20.49;39.61
7532;BME280;3807;49.030;8.714;2023-06-14T05:40:05;98959.84;;;20.55;39.34
7532;BME280;3807;49.030;8.714;2023-06-14T05:42:32;98959.88;;;20.32;39.69
7532;BME280;3807;49.030;8.714;2023-06-14T05:44:57;98957.72;;;20.49;39.70
7532;BME280;3807;49.030;8.714;2023-06-14T05:47:22;98969.63;;;20.51;39.49
7532;BME280;3807;49.030;8.714;2023-06-14T05:49:48;98961.56;;;20.65;39.29
7532;BME280;3807;49.030;8.714;2023-06-14T05:52:13;98961.38;;;20.57;39.52
7532;BME280;3807;49.030;8.714;2023-06-14T05:54:38;98972.78;;;20.55;39.52
7532;BME280;3807;49.030;8.714;2023-06-14T05:57:04;98965.53;;;20.69;39.26
7532;BME280;3807;49.030;8.714;2023-06-14T05:59:31;98964.06;;;20.56;39.34
7532;BME280;3807;49.030;8.714;2023-06-14T06:01:57;98972.25;;;20.72;39.09
7532;BME280;3807;49.030;8.714;2023-06-14T06:04:23;98970.38;;;20.63;39.47
7532;BME280;3807;49.030;8.714;2023-06-14T06:06:48;98972.41;;;20.48;39.71
7532;BME280;3807;49.030;8.714;2023-06-14T06:09:13;98972.81;;;20.76;39.13
7532;BME280;3807;49.030;8.714;2023-06-14T06:11:41;98978.00;;;20.76;39.19
7532;BME280;3807;49.030;8.714;2023-06-14T06:14:06;98975.31;;;20.66;39.42
7532;BME280;3807;49.030;8.714;2023-06-14T06:16:32;98974.00;;;20.72;39.33
7532;BME280;3807;49.030;8.714;2023-06-14T06:18:58;98972.91;;;20.85;39.01
7532;BME280;3807;49.030;8.714;2023-06-14T06:21:24;98978.44;;;20.81;39.18
7532;BME280;3807;49.030;8.714;2023-06-14T06:23:49;98984.22;;;20.73;39.34
7532;BME280;3807;49.030;8.714;2023-06-14T06:26:15;98992.69;;;20.75;39.39
7532;BME280;3807;49.030;8.714;2023-06-14T06:28:40;98992.75;;;20.85;39.22
7532;BME280;3807;49.030;8.714;2023-06-14T06:31:06;98997.59;;;20.89;39.03
7532;BME280;3807;49.030;8.714;2023-06-14T06:33:31;99001.31;;;20.97;38.77
7532;BME280;3807;49.030;8.714;2023-06-14T06:35:57;99000.25;;;20.99;39.01
7532;BME280;3807;49.030;8.714;2023-06-14T06:38:22;98995.63;;;21.03;38.78
7532;BME280;3807;49.030;8.714;2023-06-14T06:40:47;99002.25;;;20.96;39.07
7532;BME280;3807;49.030;8.714;2023-06-14T06:43:13;99005.53;;;21.18;38.80
7532;BME280;3807;49.030;8.714;2023-06-14T06:45:39;99000.44;;;21.07;39.01
7532;BME280;3807;49.030;8.714;2023-06-14T06:48:05;99002.25;;;20.96;39.23
7532;BME280;3807;49.030;8.714;2023-06-14T06:50:31;99009.84;;;21.08;39.14
7532;BME280;3807;49.030;8.714;2023-06-14T06:52:56;99004.66;;;21.08;39.11
7532;BME280;3807;49.030;8.714;2023-06-14T06:55:22;99013.88;;;21.01;39.14
7532;BME280;3807;49.030;8.714;2023-06-14T06:57:47;99010.34;;;21.23;38.77
7532;BME280;3807;49.030;8.714;2023-06-14T07:00:15;99020.19;;;21.29;38.85
7532;BME280;3807;49.030;8.714;2023-06-14T07:02:40;99011.75;;;21.27;39.00
7532;BME280;3807;49.030;8.714;2023-06-14T07:05:06;99018.66;;;21.27;38.88
7532;BME280;3807;49.030;8.714;2023-06-14T07:07:32;99016.84;;;21.17;39.19
7532;BME280;3807;49.030;8.714;2023-06-14T07:09:57;99031.03;;;21.34;38.62
7532;BME280;3807;49.030;8.714;2023-06-14T07:12:23;99030.25;;;21.44;38.85
7532;BME280;3807;49.030;8.714;2023-06-14T07:14:48;99029.59;;;21.42;38.63
7532;BME280;3807;49.030;8.714;2023-06-14T07:17:14;99041.97;;;21.38;38.89
7532;BME280;3807;49.030;8.714;2023-06-14T07:19:39;99031.78;;;21.46;38.81
7532;BME280;3807;49.030;8.714;2023-06-14T07:22:04;99037.03;;;21.56;38.58
7532;BME280;3807;49.030;8.714;2023-06-14T07:24:30;99038.09;;;21.53;38.68
7532;BME280;3807;49.030;8.714;2023-06-14T07:26:55;99043.84;;;21.57;38.59
7532;BME280;3807;49.030;8.714;2023-06-14T07:29:21;99036.78;;;21.59;38.75
7532;BME280;3807;49.030;8.714;2023-06-14T07:31:47;99042.44;;;21.74;38.49
7532;BME280;3807;49.030;8.714;2023-06-14T07:34:13;99048.28;;;21.66;38.64
7532;BME280;3807;49.030;8.714;2023-06-14T07:36:38;99052.31;;;21.59;38.91
7532;BME280;3807;49.030;8.714;2023-06-14T07:39:04;99046.59;;;21.65;38.73
7532;BME280;3807;49.030;8.714;2023-06-14T07:41:31;99054.06;;;21.79;38.60
7532;BME280;3807;49.030;8.714;2023-06-14T07:43:56;99048.31;;;21.76;38.72
7532;BME280;3807;49.030;8.714;2023-06-14T07:46:21;99051.91;;;21.84;38.37
7532;BME280;3807;49.030;8.714;2023-06-14T07:48:47;99047.97;;;21.90;38.06
7532;BME280;3807;49.030;8.714;2023-06-14T07:51:13;99060.59;;;21.74;38.16
7532;BME280;3807;49.030;8.714;2023-06-14T07:53:38;99058.91;;;21.94;38.29
7532;BME280;3807;49.030;8.714;2023-06-14T07:56:04;99056.94;;;21.86;38.43
7532;BME280;3807;49.030;8.714;2023-06-14T07:58:29;99054.31;;;22.07;38.26
7532;BME280;3807;49.030;8.714;2023-06-14T08:00:55;99050.59;;;22.00;38.45
7532;BME280;3807;49.030;8.714;2023-06-14T08:03:20;99057.28;;;22.02;38.21
7532;BME280;3807;49.030;8.714;2023-06-14T08:05:47;99050.00;;;22.17;38.36
7532;BME280;3807;49.030;8.714;2023-06-14T08:08:13;99039.09;;;22.23;38.82
7532;BME280;3807;49.030;8.714;2023-06-14T08:10:38;99041.47;;;22.36;38.00
7532;BME280;3807;49.030;8.714;2023-06-14T08:13:03;99042.00;;;22.30;38.68
7532;BME280;3807;49.030;8.714;2023-06-14T08:15:29;99044.09;;;22.46;38.87
7532;BME280;3807;49.030;8.714;2023-06-14T08:17:54;99041.63;;;22.54;38.37
7532;BME280;3807;49.030;8.714;2023-06-14T08:20:20;99049.72;;;22.61;39.25
7532;BME280;3807;49.030;8.714;2023-06-14T08:22:45;99050.25;;;22.64;39.18
7532;BME280;3807;49.030;8.714;2023-06-14T08:25:13;99053.41;;;22.68;38.76
7532;BME280;3807;49.030;8.714;2023-06-14T08:27:38;99047.78;;;22.72;38.92
7532;BME280;3807;49.030;8.714;2023-06-14T08:30:04;99053.94;;;22.71;38.95
7532;BME280;3807;49.030;8.714;2023-06-14T08:32:30;99048.59;;;22.53;38.93
7532;BME280;3807;49.030;8.714;2023-06-14T08:34:55;99047.19;;;22.30;40.02
7532;BME280;3807;49.030;8.714;2023-06-14T08:37:20;99054.50;;;22.75;39.22
7532;BME280;3807;49.030;8.714;2023-06-14T08:39:46;99048.66;;;23.02;38.79
7532;BME280;3807;49.030;8.714;2023-06-14T08:42:12;99055.06;;;22.88;39.08
7532;BME280;3807;49.030;8.714;2023-06-14T08:44:39;99057.00;;;22.96;39.07
7532;BME280;3807;49.030;8.714;2023-06-14T08:47:05;99055.34;;;23.04;38.67
7532;BME280;3807;49.030;8.714;2023-06-14T08:49:32;99058.75;;;23.15;39.11
7532;BME280;3807;49.030;8.714;2023-06-14T08:51:59;99063.28;;;23.03;39.00
7532;BME280;3807;49.030;8.714;2023-06-14T08:54:28;99053.28;;;23.27;38.53
7532;BME280;3807;49.030;8.714;2023-06-14T08:56:57;99062.87;;;23.37;38.39
7532;BME280;3807;49.030;8.714;2023-06-14T08:59:26;99065.31;;;23.38;38.35
7532;BME280;3807;49.030;8.714;2023-06-14T09:01:54;99058.34;;;23.29;38.51
7532;BME280;3807;49.030;8.714;2023-06-14T09:04:23;99055.97;;;23.55;38.04
7532;BME280;3807;49.030;8.714;2023-06-14T09:06:55;99062.69;;;23.58;38.00
7532;BME280;3807;49.030;8.714;2023-06-14T09:09:21;99060.09;;;23.48;38.54
7532;BME280;3807;49.030;8.714;2023-06-14T09:11:49;99054.31;;;23.64;38.12
7532;BME280;3807;49.030;8.714;2023-06-14T09:14:14;99053.38;;;23.65;37.61
7532;BME280;3807;49.030;8.714;2023-06-14T09:16:40;99057.59;;;23.75;37.91
7532;BME280;3807;49.030;8.714;2023-06-14T09:19:05;99067.03;;;23.76;37.70
7532;BME280;3807;49.030;8.714;2023-06-14T09:21:33;99054.44;;;23.82;37.23
7532;BME280;3807;49.030;8.714;2023-06-14T09:24:01;99060.81;;;23.97;37.65
7532;BME280;3807;49.030;8.714;2023-06-14T09:26:27;99061.19;;;24.02;37.52
7532;BME280;3807;49.030;8.714;2023-06-14T09:28:53;99058.03;;;23.98;37.48
7532;BME280;3807;49.030;8.714;2023-06-14T09:31:20;99055.22;;;24.19;37.30
7532;BME280;3807;49.030;8.714;2023-06-14T09:33:48;99064.28;;;24.15;37.10
7532;BME280;3807;49.030;8.714;2023-06-14T09:36:21;99057.69;;;24.21;37.24
7532;BME280;3807;49.030;8.714;2023-06-14T09:38:55;99064.28;;;24.15;37.52
7532;BME280;3807;49.030;8.714;2023-06-14T09:41:21;99070.53;;;24.22;36.40
7532;BME280;3807;49.030;8.714;2023-06-14T09:43:55;99066.22;;;24.13;36.62
7532;BME280;3807;49.030;8.714;2023-06-14T09:46:22;99078.56;;;24.39;36.86
7532;BME280;3807;49.030;8.714;2023-06-14T09:48:47;99071.25;;;24.52;36.78
7532;BME280;3807;49.030;8.714;2023-06-14T09:51:14;99072.50;;;24.48;36.19
7532;BME280;3807;49.030;8.714;2023-06-14T09:53:41;99063.97;;;24.74;35.69
7532;BME280;3807;49.030;8.714;2023-06-14T09:56:09;99068.97;;;24.85;35.76
7532;BME280;3807;49.030;8.714;2023-06-14T09:58:37;99072.47;;;24.93;35.74
7532;BME280;3807;49.030;8.714;2023-06-14T10:01:07;99070.53;;;24.95;34.96
7532;BME280;3807;49.030;8.714;2023-06-14T10:03:34;99067.62;;;25.16;34.90
7532;BME280;3807;49.030;8.714;2023-06-14T10:06:02;99078.25;;;25.05;35.18
7532;BME280;3807;49.030;8.714;2023-06-14T10:08:32;99072.22;;;25.40;34.43
7532;BME280;3807;49.030;8.714;2023-06-14T10:11:02;99070.38;;;25.59;34.29
7532;BME280;3807;49.030;8.714;2023-06-14T10:16:12;99079.69;;;25.61;33.89
7532;BME280;3807;49.030;8.714;2023-06-14T10:18:50;99072.09;;;25.76;33.60
7532;BME280;3807;49.030;8.714;2023-06-14T10:21:32;99066.19;;;25.92;33.55
7532;BME280;3807;49.030;8.714;2023-06-14T10:24:01;99067.25;;;26.07;33.30
7532;BME280;3807;49.030;8.714;2023-06-14T10:26:29;99071.53;;;26.17;33.22
7532;BME280;3807;49.030;8.714;2023-06-14T10:29:08;99064.37;;;26.27;32.82
7532;BME280;3807;49.030;8.714;2023-06-14T10:31:45;99065.47;;;26.50;32.40
7532;BME280;3807;49.030;8.714;2023-06-14T10:34:12;99059.59;;;26.56;32.95
7532;BME280;3807;49.030;8.714;2023-06-14T10:36:38;99063.22;;;26.72;32.38
7532;BME280;3807;49.030;8.714;2023-06-14T10:39:18;99065.66;;;26.73;32.28
7532;BME280;3807;49.030;8.714;2023-06-14T10:41:55;99055.37;;;26.72;32.45
7532;BME280;3807;49.030;8.714;2023-06-14T10:46:47;99050.53;;;27.18;30.80
7532;BME280;3807;49.030;8.714;2023-06-14T10:49:12;99055.44;;;27.29;32.00
7532;BME280;3807;49.030;8.714;2023-06-14T10:51:42;99055.28;;;27.30;31.78
7532;BME280;3807;49.030;8.714;2023-06-14T10:54:15;99061.47;;;27.46;30.52
7532;BME280;3807;49.030;8.714;2023-06-14T10:56:50;99050.81;;;27.55;31.21
7532;BME280;3807;49.030;8.714;2023-06-14T10:59:17;99071.91;;;27.62;30.61
7532;BME280;3807;49.030;8.714;2023-06-14T11:04:11;99058.03;;;28.09;29.81
7532;BME280;3807;49.030;8.714;2023-06-14T11:06:48;99059.16;;;28.15;30.79
7532;BME280;3807;49.030;8.714;2023-06-14T11:12:10;99055.44;;;28.40;29.89
7532;BME280;3807;49.030;8.714;2023-06-14T11:14:38;99067.38;;;28.35;29.41
7532;BME280;3807;49.030;8.714;2023-06-14T11:17:03;99064.94;;;28.41;29.85
7532;BME280;3807;49.030;8.714;2023-06-14T11:19:29;99058.94;;;28.56;29.88
7532;BME280;3807;49.030;8.714;2023-06-14T11:21:55;99057.47;;;28.61;29.56
7532;BME280;3807;49.030;8.714;2023-06-14T11:24:20;99052.56;;;28.81;29.61
7532;BME280;3807;49.030;8.714;2023-06-14T11:26:47;99055.03;;;29.06;29.38
7532;BME280;3807;49.030;8.714;2023-06-14T11:29:14;99054.78;;;28.92;29.37
7532;BME280;3807;49.030;8.714;2023-06-14T11:31:43;99043.47;;;28.92;29.30
7532;BME280;3807;49.030;8.714;2023-06-14T11:34:12;99056.84;;;29.05;29.41
7532;BME280;3807;49.030;8.714;2023-06-14T11:36:38;99048.63;;;29.08;29.52
7532;BME280;3807;49.030;8.714;2023-06-14T11:39:05;99052.22;;;29.07;29.02
7532;BME280;3807;49.030;8.714;2023-06-14T11:41:42;99051.56;;;29.28;28.81
7532;BME280;3807;49.030;8.714;2023-06-14T11:44:08;99059.09;;;29.46;28.73
7532;BME280;3807;49.030;8.714;2023-06-14T11:46:34;99056.22;;;29.71;28.30
7532;BME280;3807;49.030;8.714;2023-06-14T11:49:01;99063.19;;;29.63;28.56
7532;BME280;3807;49.030;8.714;2023-06-14T11:51:29;99057.69;;;29.73;28.03
7532;BME280;3807;49.030;8.714;2023-06-14T11:53:55;99050.00;;;29.72;28.17
7532;BME280;3807;49.030;8.714;2023-06-14T11:56:21;99048.75;;;29.67;28.39
7532;BME280;3807;49.030;8.714;2023-06-14T11:58:46;99048.16;;;29.57;27.87
7532;BME280;3807;49.030;8.714;2023-06-14T12:01:18;99051.72;;;29.79;28.40
7532;BME280;3807;49.030;8.714;2023-06-14T12:03:48;99051.16;;;29.84;27.70
7532;BME280;3807;49.030;8.714;2023-06-14T12:06:14;99043.03;;;29.94;26.80
7532;BME280;3807;49.030;8.714;2023-06-14T12:08:40;99049.25;;;30.07;27.52
7532;BME280;3807;49.030;8.714;2023-06-14T12:11:12;99057.19;;;29.40;26.89
7532;BME280;3807;49.030;8.714;2023-06-14T12:13:42;99052.88;;;29.91;26.77
7532;BME280;3807;49.030;8.714;2023-06-14T12:16:09;99048.31;;;30.15;27.54
7532;BME280;3807;49.030;8.714;2023-06-14T12:18:35;99051.16;;;30.50;26.80
7532;BME280;3807;49.030;8.714;2023-06-14T12:21:03;99048.87;;;30.61;26.98
7532;BME280;3807;49.030;8.714;2023-06-14T12:23:42;99040.59;;;30.79;26.25
7532;BME280;3807;49.030;8.714;2023-06-14T12:26:08;99042.38;;;31.00;26.53
7532;BME280;3807;49.030;8.714;2023-06-14T12:28:33;99046.34;;;30.90;26.62
7532;BME280;3807;49.030;8.714;2023-06-14T12:30:59;99045.12;;;30.92;26.76
7532;BME280;3807;49.030;8.714;2023-06-14T12:33:24;99044.38;;;30.98;26.35
7532;BME280;3807;49.030;8.714;2023-06-14T12:35:50;99040.63;;;31.07;26.89
7532;BME280;3807;49.030;8.714;2023-06-14T12:38:16;99038.09;;;30.99;26.96
7532;BME280;3807;49.030;8.714;2023-06-14T12:40:41;99038.94;;;31.00;26.81
7532;BME280;3807;49.030;8.714;2023-06-14T12:43:07;99042.56;;;30.99;26.97
7532;BME280;3807;49.030;8.714;2023-06-14T12:45:33;99037.41;;;31.12;26.81
7532;BME280;3807;49.030;8.714;2023-06-14T12:47:58;99031.38;;;31.18;26.15
7532;BME280;3807;49.030;8.714;2023-06-14T12:50:23;99037.25;;;31.42;26.24
7532;BME280;3807;49.030;8.714;2023-06-14T12:52:49;99042.03;;;31.31;26.22
7532;BME280;3807;49.030;8.714;2023-06-14T12:55:14;99037.25;;;31.42;26.62
7532;BME280;3807;49.030;8.714;2023-06-14T12:57:40;99037.38;;;31.68;26.21
7532;BME280;3807;49.030;8.714;2023-06-14T13:00:05;99045.66;;;31.93;25.78
7532;BME280;3807;49.030;8.714;2023-06-14T13:02:32;99041.91;;;31.81;26.17
7532;BME280;3807;49.030;8.714;2023-06-14T13:04:59;99038.06;;;31.77;26.32
7532;BME280;3807;49.030;8.714;2023-06-14T13:07:25;99035.59;;;31.75;24.53
7532;BME280;3807;49.030;8.714;2023-06-14T13:09:50;99044.47;;;31.68;26.34
7532;BME280;3807;49.030;8.714;2023-06-14T13:12:16;99053.38;;;31.95;25.85
7532;BME280;3807;49.030;8.714;2023-06-14T13:14:41;99050.97;;;32.07;25.53
7532;BME280;3807;49.030;8.714;2023-06-14T13:17:10;99058.28;;;32.05;25.83
7532;BME280;3807;49.030;8.714;2023-06-14T13:19:35;99050.78;;;32.08;26.02
7532;BME280;3807;49.030;8.714;2023-06-14T13:22:01;99052.12;;;31.97;25.91
7532;BME280;3807;49.030;8.714;2023-06-14T13:24:26;99049.59;;;32.17;25.39
7532;BME280;3807;49.030;8.714;2023-06-14T13:26:53;99047.22;;;32.29;25.57
7532;BME280;3807;49.030;8.714;2023-06-14T13:29:19;99046.63;;;32.40;25.03